createdAt,value
2018-07-07T00:00:43.053Z,101528.14
2018-07-07T00:02:47.986Z,101500.53
2018-07-07T00:04:53.005Z,101529.50
2018-07-07T00:06:58.559Z,101529.76
2018-07-07T00:09:03.724Z,101531.14
2018-07-07T00:11:08.747Z,101532.31
2018-07-07T00:13:14.043Z,101531.36
2018-07-07T00:15:20.410Z,101528.80
2018-07-07T00:17:25.492Z,101531.44
2018-07-07T00:19:30.313Z,101528.30
2018-07-07T00:21:35.265Z,101537.27
2018-07-07T00:23:40.185Z,101529.73
2018-07-07T00:25:44.996Z,101531.32
2018-07-07T00:27:50.596Z,101528.30
2018-07-07T00:29:55.578Z,101530.65
2018-07-07T00:32:00.642Z,101516.70
2018-07-07T00:34:05.629Z,101535.17
2018-07-07T00:36:10.625Z,101534.51
2018-07-07T00:38:15.716Z,101537.23
2018-07-07T00:40:20.574Z,101532.95
2018-07-07T00:42:25.572Z,101524.45
2018-07-07T00:44:30.981Z,101536.13
2018-07-07T00:46:36.227Z,101538.17
2018-07-07T00:48:41.413Z,101532.02
2018-07-07T00:50:46.354Z,101523.94
2018-07-07T00:52:51.287Z,101537.08
2018-07-07T00:54:56.594Z,101534.73
2018-07-07T00:57:01.525Z,101542.48
2018-07-07T00:59:06.338Z,101537.48
2018-07-07T01:01:11.494Z,101537.98
2018-07-07T01:03:16.549Z,101538.13
2018-07-07T01:05:35.801Z,101540.41
2018-07-07T01:07:40.801Z,101540.92
2018-07-07T01:09:45.728Z,101544.34
2018-07-07T01:11:50.784Z,101537.72
2018-07-07T01:13:58.724Z,101542.30
2018-07-07T01:16:03.766Z,101543.19
2018-07-07T01:18:09.126Z,101548.00
2018-07-07T01:20:14.135Z,101543.97
2018-07-07T01:22:19.064Z,101549.16
2018-07-07T01:24:24.022Z,101544.25
2018-07-07T01:26:29.151Z,101548.89
2018-07-07T01:28:33.877Z,101546.47
2018-07-07T01:30:38.992Z,101546.66
2018-07-07T01:32:44.032Z,101548.80
2018-07-07T01:34:49.165Z,101510.64
2018-07-07T01:36:54.281Z,101547.12
2018-07-07T01:38:59.076Z,101544.07
2018-07-07T01:41:04.000Z,101546.42
2018-07-07T01:43:08.651Z,101532.63
2018-07-07T01:45:13.406Z,101531.98
2018-07-07T01:47:18.146Z,101542.17
2018-07-07T01:49:23.020Z,101541.29
2018-07-07T01:51:27.982Z,101539.43
2018-07-07T01:53:32.885Z,101540.64
2018-07-07T01:55:37.994Z,101547.67
2018-07-07T01:57:42.849Z,101529.72
2018-07-07T01:59:47.627Z,101543.65
2018-07-07T02:01:52.673Z,101541.05
2018-07-07T02:03:57.633Z,101545.59
2018-07-07T02:06:02.570Z,101520.86
2018-07-07T02:08:07.886Z,101524.47
2018-07-07T02:10:12.916Z,101537.80
2018-07-07T02:12:17.861Z,101539.52
2018-07-07T02:14:22.670Z,101538.50
2018-07-07T02:16:27.632Z,101530.99
2018-07-07T02:18:32.552Z,101543.69
2018-07-07T02:20:37.852Z,101536.46
2018-07-07T02:22:43.070Z,101537.99
2018-07-07T02:24:48.183Z,101535.64
2018-07-07T02:26:53.195Z,101536.28
2018-07-07T02:28:58.191Z,101536.66
2018-07-07T02:31:02.993Z,101534.75
2018-07-07T02:33:07.977Z,101539.67
2018-07-07T02:35:12.958Z,101538.28
2018-07-07T02:37:17.801Z,101540.87
2018-07-07T02:39:22.838Z,101544.39
2018-07-07T02:41:27.726Z,101542.17
2018-07-07T02:43:32.635Z,101541.66
2018-07-07T02:45:37.689Z,101536.88
2018-07-07T02:47:42.466Z,101540.08
2018-07-07T02:49:47.347Z,101544.53
2018-07-07T02:51:52.197Z,101542.12
2018-07-07T02:53:57.451Z,101542.44
2018-07-07T02:56:02.169Z,101513.31
2018-07-07T02:58:06.972Z,101541.00
2018-07-07T03:00:11.877Z,101540.69
2018-07-07T03:02:16.678Z,101506.65
2018-07-07T03:04:21.500Z,101541.02
2018-07-07T03:06:26.347Z,101533.88
2018-07-07T03:08:31.138Z,101546.76
2018-07-07T03:10:35.925Z,101542.77
2018-07-07T03:12:40.681Z,101546.94
2018-07-07T03:14:45.650Z,101545.55
2018-07-07T03:16:50.578Z,101544.20
2018-07-07T03:18:55.728Z,101541.61
2018-07-07T03:21:00.796Z,101546.80
2018-07-07T03:23:05.825Z,101548.66
2018-07-07T03:25:11.023Z,101546.80
2018-07-07T03:27:15.831Z,101553.75
2018-07-07T03:29:20.679Z,101551.43
2018-07-07T03:31:25.469Z,101547.35
2018-07-07T03:33:30.222Z,101555.78
2018-07-07T03:35:35.296Z,101557.36
2018-07-07T03:37:40.206Z,101557.62
2018-07-07T03:39:45.007Z,101559.44
2018-07-07T03:41:49.864Z,101562.04
2018-07-07T03:43:54.760Z,101562.59
2018-07-07T03:45:59.554Z,101564.81
2018-07-07T03:48:04.439Z,101568.25
2018-07-07T03:50:09.300Z,101565.98
2018-07-07T03:52:14.383Z,101571.91
2018-07-07T03:54:19.307Z,101563.52
2018-07-07T03:56:24.331Z,101569.72
2018-07-07T03:58:29.272Z,101568.61
2018-07-07T04:00:34.042Z,101568.47
2018-07-07T04:02:38.941Z,101564.58
2018-07-07T04:04:43.858Z,101565.28
2018-07-07T04:06:48.760Z,101571.25
2018-07-07T04:08:53.505Z,101571.98
2018-07-07T04:10:58.515Z,101573.84
2018-07-07T04:13:03.281Z,101574.35
2018-07-07T04:15:08.176Z,101578.70
2018-07-07T04:17:12.922Z,101581.48
2018-07-07T04:19:17.767Z,101586.44
2018-07-07T04:21:22.557Z,101591.26
2018-07-07T04:23:27.325Z,101589.44
2018-07-07T04:25:32.227Z,101591.06
2018-07-07T04:27:37.140Z,101592.41
2018-07-07T04:29:41.837Z,101598.42
2018-07-07T04:31:46.723Z,101595.21
2018-07-07T04:33:51.478Z,101595.16
2018-07-07T04:35:56.412Z,101600.59
2018-07-07T04:38:01.129Z,101596.81
2018-07-07T04:40:05.916Z,101600.03
2018-07-07T04:42:12.512Z,101598.38
2018-07-07T04:44:17.399Z,101596.52
2018-07-07T04:46:22.230Z,101599.94
2018-07-07T04:48:27.017Z,101597.40
2018-07-07T04:50:31.821Z,101595.07
2018-07-07T04:52:36.742Z,101600.41
2018-07-07T04:54:41.642Z,101601.34
2018-07-07T04:56:46.447Z,101606.58
2018-07-07T04:58:51.246Z,101609.58
2018-07-07T05:00:56.513Z,101612.17
2018-07-07T05:03:01.813Z,101611.66
2018-07-07T05:05:06.839Z,101616.79
2018-07-07T05:07:11.801Z,101616.22
2018-07-07T05:09:16.651Z,101617.88
2018-07-07T05:11:21.553Z,101610.93
2018-07-07T05:13:26.460Z,101624.77
2018-07-07T05:15:31.282Z,101611.81
2018-07-07T05:17:36.214Z,101590.15
2018-07-07T05:19:41.117Z,101620.77
2018-07-07T05:21:45.939Z,101620.98
2018-07-07T05:23:50.899Z,101622.17
2018-07-07T05:25:56.848Z,101626.13
2018-07-07T05:28:03.126Z,101627.44
2018-07-07T05:30:10.292Z,101615.25
2018-07-07T05:32:15.100Z,101628.00
2018-07-07T05:34:19.936Z,101634.44
2018-07-07T05:36:24.814Z,101631.94
2018-07-07T05:38:29.555Z,101631.30
2018-07-07T05:40:35.073Z,101631.55
2018-07-07T05:42:40.056Z,101634.13
2018-07-07T05:44:45.056Z,101629.64
2018-07-07T05:46:49.954Z,101631.28
2018-07-07T05:48:55.537Z,101627.61
2018-07-07T05:51:00.493Z,101629.29
2018-07-07T05:53:05.413Z,101634.17
2018-07-07T05:55:10.519Z,101639.38
2018-07-07T05:57:15.471Z,101640.73
2018-07-07T05:59:20.317Z,101642.11
2018-07-07T06:01:25.414Z,101623.79
2018-07-07T06:03:30.568Z,101650.83
2018-07-07T06:05:36.294Z,101649.23
2018-07-07T06:07:41.268Z,101649.99
2018-07-07T06:09:47.278Z,101646.14
2018-07-07T06:11:53.649Z,101651.15
2018-07-07T06:13:58.820Z,101646.42
2018-07-07T06:16:03.788Z,101651.61
2018-07-07T06:18:08.453Z,101652.30
2018-07-07T06:20:13.787Z,101654.06
2018-07-07T06:22:19.023Z,101658.23
2018-07-07T06:24:24.166Z,101637.37
2018-07-07T06:26:29.210Z,101660.64
2018-07-07T06:28:34.110Z,101660.03
2018-07-07T06:30:39.144Z,101662.68
2018-07-07T06:32:44.123Z,101659.75
2018-07-07T06:34:49.387Z,101665.04
2018-07-07T06:36:55.559Z,101662.99
2018-07-07T06:39:00.899Z,101661.23
2018-07-07T06:41:06.059Z,101655.33
2018-07-07T06:43:11.161Z,101662.83
2018-07-07T06:45:16.258Z,101660.44
2018-07-07T06:47:21.512Z,101664.42
2018-07-07T06:49:27.187Z,101528.06
2018-07-07T06:51:55.695Z,101662.30
2018-07-07T06:54:01.142Z,101667.78
2018-07-07T06:56:06.359Z,101656.30
2018-07-07T06:58:11.564Z,101662.33
2018-07-07T07:00:16.667Z,101670.59
2018-07-07T07:02:21.662Z,101660.41
2018-07-07T07:04:26.669Z,101669.17
2018-07-07T07:06:31.889Z,101673.73
2018-07-07T07:08:36.613Z,101645.77
2018-07-07T07:10:41.477Z,101661.20
2018-07-07T07:12:46.546Z,101658.49
2018-07-07T07:14:52.480Z,101677.47
2018-07-07T07:16:58.314Z,101675.48
2018-07-07T07:19:03.481Z,101651.69
2018-07-07T07:21:08.599Z,101678.36
2018-07-07T07:23:13.689Z,101680.30
2018-07-07T07:25:18.634Z,101673.19
2018-07-07T07:27:30.057Z,101680.80
2018-07-07T07:29:35.299Z,101653.64
2018-07-07T07:31:40.768Z,101691.33
2018-07-07T07:33:47.176Z,101688.65
2018-07-07T07:35:52.757Z,101696.64
2018-07-07T07:37:58.418Z,101697.38
2018-07-07T07:40:03.636Z,101694.69
2018-07-07T07:42:08.771Z,101690.29
2018-07-07T07:44:13.559Z,101666.68
2018-07-07T07:46:18.980Z,101681.43
2018-07-07T07:48:24.083Z,101638.95
2018-07-07T07:50:29.225Z,101693.47
2018-07-07T07:52:34.022Z,101694.28
2018-07-07T07:54:39.159Z,101688.19
2018-07-07T07:56:45.200Z,101690.69
2018-07-07T07:58:50.103Z,101688.97
2018-07-07T08:00:55.998Z,101690.97
2018-07-07T08:03:08.659Z,101699.08
2018-07-07T08:05:13.748Z,101697.40
2018-07-07T08:07:19.216Z,101701.59
2018-07-07T08:09:24.691Z,101682.20
2018-07-07T08:11:30.878Z,101691.70
2018-07-07T08:13:35.975Z,101695.13
2018-07-07T08:15:40.971Z,101690.27
2018-07-07T08:17:45.821Z,101698.12
2018-07-07T08:19:52.416Z,101694.20
2018-07-07T08:21:57.361Z,101697.11
2018-07-07T08:24:02.274Z,101695.13
2018-07-07T08:26:07.248Z,101705.86
2018-07-07T08:28:12.362Z,101709.81
2018-07-07T08:30:17.355Z,101705.14
2018-07-07T08:32:22.789Z,101699.16
2018-07-07T08:34:28.323Z,101697.11
2018-07-07T08:36:33.312Z,101700.27
2018-07-07T08:38:39.022Z,101692.67
2018-07-07T08:40:44.027Z,101702.59
2018-07-07T08:42:49.206Z,101704.78
2018-07-07T08:44:54.306Z,101702.88
2018-07-07T08:46:59.342Z,101696.51
2018-07-07T08:49:04.262Z,101701.52
2018-07-07T08:51:09.445Z,101700.72
2018-07-07T08:53:15.474Z,101703.52
2018-07-07T08:55:24.005Z,101695.36
2018-07-07T08:57:29.092Z,101684.02
2018-07-07T08:59:34.245Z,101694.33
2018-07-07T09:01:39.593Z,101693.69
2018-07-07T09:03:44.708Z,101696.97
2018-07-07T09:05:53.270Z,101696.23
2018-07-07T09:07:59.939Z,101701.06
2018-07-07T09:10:05.907Z,101502.90
2018-07-07T09:12:13.111Z,101708.97
2018-07-07T09:14:20.896Z,101702.14
2018-07-07T09:16:26.573Z,101696.22
2018-07-07T09:18:32.312Z,101700.23
2018-07-07T09:20:41.177Z,101695.66
2018-07-07T09:22:46.584Z,101628.44
2018-07-07T09:24:51.703Z,101702.30
2018-07-07T09:26:57.089Z,101677.21
2018-07-07T09:29:02.327Z,101702.69
2018-07-07T09:31:08.642Z,101699.36
2018-07-07T09:33:14.783Z,101691.20
2018-07-07T09:35:20.461Z,101641.95
2018-07-07T09:37:26.834Z,101528.27
2018-07-07T09:39:32.131Z,101694.63
2018-07-07T09:41:37.457Z,101691.84
2018-07-07T09:43:42.344Z,101691.77
2018-07-07T09:45:48.980Z,101691.61
2018-07-07T09:47:54.157Z,101678.84
2018-07-07T09:49:59.141Z,101686.98
2018-07-07T09:52:05.447Z,101687.03
2018-07-07T09:54:11.042Z,101663.26
2018-07-07T09:56:16.744Z,101679.93
2018-07-07T09:58:21.715Z,101682.99
2018-07-07T10:00:31.692Z,101684.26
2018-07-07T10:02:36.791Z,101681.88
2018-07-07T10:04:42.101Z,101683.76
2018-07-07T10:06:47.567Z,101687.19
2018-07-07T10:08:52.795Z,101683.90
2018-07-07T10:11:15.754Z,101672.50
2018-07-07T10:13:20.564Z,101681.90
2018-07-07T10:15:26.517Z,101679.88
2018-07-07T10:17:35.913Z,101677.63
2018-07-07T10:19:40.851Z,101680.95
2018-07-07T10:21:46.019Z,101646.97
2018-07-07T10:23:50.915Z,101679.92
2018-07-07T10:25:56.750Z,101679.55
2018-07-07T10:28:01.660Z,101660.30
2018-07-07T10:30:06.565Z,101675.33
2018-07-07T10:32:11.635Z,101679.30
2018-07-07T10:34:16.430Z,101677.85
2018-07-07T10:36:21.433Z,101668.72
2018-07-07T10:38:27.443Z,101680.22
2018-07-07T10:40:32.446Z,101664.64
2018-07-07T10:42:37.491Z,101681.86
2018-07-07T10:44:42.742Z,101673.89
2018-07-07T10:46:47.714Z,101680.13
2018-07-07T10:48:52.679Z,101680.16
2018-07-07T10:50:57.533Z,101676.08
2018-07-07T10:53:02.436Z,101688.72
2018-07-07T10:55:07.457Z,101637.52
2018-07-07T10:57:12.500Z,101638.69
2018-07-07T10:59:17.272Z,101699.06
2018-07-07T11:01:22.132Z,101672.66
2018-07-07T11:03:26.840Z,101669.54
2018-07-07T11:05:40.795Z,101670.52
2018-07-07T11:07:45.887Z,101673.76
2018-07-07T11:09:50.633Z,101672.23
2018-07-07T11:11:55.510Z,101687.80
2018-07-07T11:14:00.880Z,101677.85
2018-07-07T11:16:05.984Z,101674.16
2018-07-07T11:18:10.869Z,101621.47
2018-07-07T11:20:17.234Z,101668.88
2018-07-07T11:22:25.183Z,101664.42
2018-07-07T11:24:30.675Z,101666.81
2018-07-07T11:26:36.203Z,101658.95
2018-07-07T11:28:41.288Z,101672.97
2018-07-07T11:30:46.277Z,101670.83
2018-07-07T11:32:54.183Z,101659.05
2018-07-07T11:34:59.115Z,101671.95
2018-07-07T11:37:03.986Z,101636.58
2018-07-07T11:39:09.938Z,101615.77
2018-07-07T11:41:25.378Z,101669.57
2018-07-07T11:43:32.144Z,101668.52
2018-07-07T11:47:56.381Z,101671.04
2018-07-07T11:52:18.131Z,101662.64
2018-07-07T11:54:27.708Z,101663.67
2018-07-07T11:56:32.585Z,101672.53
2018-07-07T11:58:39.364Z,101604.49
2018-07-07T12:00:44.466Z,101658.19
2018-07-07T12:02:49.509Z,101667.75
2018-07-07T12:04:54.392Z,101661.81
2018-07-07T12:06:59.484Z,101648.44
2018-07-07T12:09:05.289Z,101657.28
2018-07-07T12:11:10.247Z,101641.66
2018-07-07T12:13:15.066Z,101659.58
2018-07-07T12:15:20.066Z,101648.42
2018-07-07T12:17:24.783Z,101651.83
2018-07-07T12:19:29.863Z,101652.58
2018-07-07T12:21:34.765Z,101647.91
2018-07-07T12:23:44.236Z,101652.41
2018-07-07T12:25:49.527Z,101651.16
2018-07-07T12:27:54.527Z,101654.56
2018-07-07T12:29:59.292Z,101659.41
2018-07-07T12:32:04.379Z,101632.31
2018-07-07T12:34:09.427Z,101648.53
2018-07-07T12:36:14.812Z,101380.91
2018-07-07T12:38:19.994Z,101650.87
2018-07-07T12:40:24.852Z,101562.23
2018-07-07T12:42:29.901Z,101650.50
2018-07-07T12:44:34.811Z,101641.26
2018-07-07T12:46:39.593Z,101653.66
2018-07-07T12:48:44.815Z,101650.58
2018-07-07T12:50:51.455Z,101646.94
2018-07-07T12:52:56.692Z,101644.80
2018-07-07T12:55:02.519Z,101631.16
2018-07-07T12:57:08.614Z,101637.27
2018-07-07T12:59:13.941Z,101621.11
2018-07-07T13:01:23.138Z,101640.82
2018-07-07T13:03:28.287Z,101597.05
2018-07-07T13:05:34.168Z,101643.38
2018-07-07T13:07:39.331Z,101589.70
2018-07-07T13:09:44.589Z,101647.72
2018-07-07T13:11:50.000Z,101646.41
2018-07-07T13:13:55.221Z,101641.27
2018-07-07T13:16:00.584Z,101642.90
2018-07-07T13:18:06.094Z,101632.45
2018-07-07T13:20:14.529Z,101665.68
2018-07-07T13:22:21.772Z,101531.66
2018-07-07T13:26:40.291Z,101638.97
2018-07-07T13:28:45.294Z,101644.80
2018-07-07T13:30:50.300Z,101649.23
2018-07-07T13:32:55.419Z,101647.95
2018-07-07T13:35:00.426Z,101653.52
2018-07-07T13:37:05.633Z,101605.42
2018-07-07T13:39:13.955Z,101582.66
2018-07-07T13:41:18.944Z,101644.34
2018-07-07T13:43:25.031Z,101659.33
2018-07-07T13:45:30.710Z,101559.91
2018-07-07T13:47:37.068Z,101538.38
2018-07-07T13:49:43.597Z,101644.88
2018-07-07T13:51:48.587Z,101644.43
2018-07-07T13:53:53.944Z,101644.45
2018-07-07T13:55:59.001Z,101655.80
2018-07-07T13:58:04.047Z,101640.09
2018-07-07T14:00:11.414Z,101640.97
2018-07-07T14:02:16.359Z,101641.83
2018-07-07T14:04:21.162Z,101657.58
2018-07-07T14:06:26.494Z,101649.69
2018-07-07T14:08:32.851Z,101642.27
2018-07-07T14:10:38.543Z,101626.08
2018-07-07T14:12:43.861Z,101642.80
2018-07-07T14:14:48.870Z,101635.75
2018-07-07T14:16:54.007Z,101614.38
2018-07-07T14:18:59.177Z,101642.81
2018-07-07T14:21:04.231Z,101635.72
2018-07-07T14:23:09.681Z,101633.39
2018-07-07T14:25:14.773Z,101632.98
2018-07-07T14:27:20.098Z,101637.13
2018-07-07T14:29:25.090Z,101638.20
2018-07-07T14:31:30.389Z,101608.31
2018-07-07T14:33:35.448Z,101639.12
2018-07-07T14:35:40.456Z,101633.41
2018-07-07T14:37:45.984Z,101634.81
2018-07-07T14:40:00.284Z,101638.35
2018-07-07T14:42:45.175Z,101663.69
2018-07-07T14:44:50.344Z,101644.06
2018-07-07T14:46:55.393Z,101624.34
2018-07-07T14:49:00.552Z,101644.99
2018-07-07T14:51:09.181Z,101655.44
2018-07-07T14:53:14.432Z,101637.92
2018-07-07T14:55:21.727Z,101633.55
2018-07-07T14:57:27.757Z,101627.95
2018-07-07T14:59:33.640Z,101492.63
2018-07-07T15:01:39.076Z,101612.64
2018-07-07T15:03:44.536Z,101620.98
2018-07-07T15:05:49.917Z,101616.57
2018-07-07T15:07:55.145Z,101614.42
2018-07-07T15:10:00.173Z,101610.48
2018-07-07T15:12:05.452Z,101620.55
2018-07-07T15:14:10.857Z,101617.01
2018-07-07T15:16:16.879Z,101635.39
2018-07-07T15:18:22.400Z,101617.45
2018-07-07T15:20:28.893Z,101465.99
2018-07-07T15:22:34.244Z,101595.14
2018-07-07T15:24:39.511Z,101622.73
2018-07-07T15:26:44.698Z,101600.84
2018-07-07T15:28:49.857Z,101625.75
2018-07-07T15:30:55.716Z,101549.63
2018-07-07T15:33:04.116Z,101631.44
2018-07-07T15:35:10.083Z,101615.25
2018-07-07T15:37:15.334Z,101603.88
2018-07-07T15:39:20.630Z,101607.78
2018-07-07T15:41:26.309Z,101601.57
2018-07-07T15:43:31.567Z,101592.41
2018-07-07T15:45:37.313Z,101595.83
2018-07-07T15:47:42.654Z,101452.47
2018-07-07T15:49:47.871Z,101600.29
2018-07-07T15:51:53.077Z,101613.51
2018-07-07T15:53:58.727Z,101591.22
2018-07-07T15:56:04.106Z,101460.39
2018-07-07T15:58:09.539Z,101593.37
2018-07-07T16:00:14.854Z,101582.39
2018-07-07T16:02:20.302Z,101598.65
2018-07-07T16:04:26.748Z,101547.45
2018-07-07T16:06:32.102Z,101588.14
2018-07-07T16:08:37.151Z,101591.65
2018-07-07T16:10:42.467Z,101595.08
2018-07-07T16:12:47.584Z,101589.84
2018-07-07T16:14:53.524Z,101569.32
2018-07-07T16:16:58.811Z,101585.54
2018-07-07T16:19:03.956Z,101579.31
2018-07-07T16:21:09.440Z,101567.98
2018-07-07T16:23:15.516Z,101609.15
2018-07-07T16:25:21.013Z,101593.80
2018-07-07T16:27:26.099Z,101589.91
2018-07-07T16:29:31.677Z,101515.08
2018-07-07T16:31:37.347Z,101589.92
2018-07-07T16:33:42.482Z,101606.09
2018-07-07T16:35:48.188Z,101595.58
2018-07-07T16:37:53.733Z,101593.42
2018-07-07T16:39:58.873Z,101589.92
2018-07-07T16:42:04.441Z,101537.39
2018-07-07T16:44:09.847Z,101585.97
2018-07-07T16:46:15.721Z,101551.33
2018-07-07T16:48:21.210Z,101593.25
2018-07-07T16:52:32.146Z,101571.28
2018-07-07T16:54:38.215Z,101584.34
2018-07-07T16:56:43.489Z,101592.22
2018-07-07T16:58:49.050Z,101581.88
2018-07-07T17:00:54.129Z,101580.38
2018-07-07T17:03:00.120Z,101604.25
2018-07-07T17:05:06.864Z,101587.80
2018-07-07T17:07:14.782Z,101581.95
2018-07-07T17:09:20.445Z,101604.73
2018-07-07T17:11:26.233Z,101590.31
2018-07-07T17:13:33.603Z,101596.92
2018-07-07T17:15:40.450Z,101532.51
2018-07-07T17:17:46.059Z,101581.95
2018-07-07T17:19:52.121Z,101574.53
2018-07-07T17:21:57.440Z,101595.05
2018-07-07T17:24:03.221Z,101606.84
2018-07-07T17:26:08.698Z,101607.38
2018-07-07T17:28:14.500Z,101597.75
2018-07-07T17:30:21.340Z,101583.36
2018-07-07T17:32:26.544Z,101592.92
2018-07-07T17:34:31.948Z,101587.73
2018-07-07T17:36:37.317Z,101581.17
2018-07-07T17:38:42.423Z,101593.84
2018-07-07T17:40:47.779Z,101566.21
2018-07-07T17:42:53.340Z,101585.07
2018-07-07T17:44:59.652Z,101590.27
2018-07-07T17:47:04.926Z,101573.66
2018-07-07T17:49:10.328Z,101582.45
2018-07-07T17:51:15.946Z,101588.53
2018-07-07T17:53:22.250Z,101589.37
2018-07-07T17:55:28.004Z,101572.78
2018-07-07T17:57:33.486Z,101538.22
2018-07-07T17:59:39.834Z,101607.30
2018-07-07T18:01:45.430Z,101590.76
2018-07-07T18:03:51.649Z,101528.52
2018-07-07T18:05:56.969Z,101589.83
2018-07-07T18:08:04.419Z,101611.27
2018-07-07T18:10:10.866Z,101476.42
2018-07-07T18:12:28.963Z,101580.65
2018-07-07T18:14:35.117Z,101602.95
2018-07-07T18:16:40.874Z,101592.02
2018-07-07T18:18:47.799Z,101605.91
2018-07-07T18:20:54.049Z,101604.56
2018-07-07T18:22:59.742Z,101607.28
2018-07-07T18:25:05.653Z,101603.48
2018-07-07T18:27:11.198Z,101593.06
2018-07-07T18:29:16.644Z,101592.42
2018-07-07T18:31:22.663Z,101589.94
2018-07-07T18:33:32.139Z,101583.97
2018-07-07T18:35:40.499Z,101604.01
2018-07-07T18:37:45.835Z,101599.02
2018-07-07T18:39:50.914Z,101585.77
2018-07-07T18:41:56.011Z,101597.41
2018-07-07T18:44:04.992Z,101499.92
2018-07-07T18:46:13.165Z,101599.95
2018-07-07T18:48:19.627Z,101606.41
2018-07-07T18:50:24.892Z,101604.25
2018-07-07T18:52:31.349Z,101598.09
2018-07-07T18:54:36.544Z,101591.60
2018-07-07T18:56:44.016Z,101605.09
2018-07-07T18:58:50.761Z,101592.16
2018-07-07T19:00:56.185Z,101598.95
2018-07-07T19:03:01.360Z,101598.60
2018-07-07T19:05:06.716Z,101594.53
2018-07-07T19:07:15.946Z,101536.16
2018-07-07T19:09:21.406Z,101604.27
2018-07-07T19:11:27.234Z,101601.50
2018-07-07T19:13:32.914Z,101599.39
2018-07-07T19:15:40.325Z,101600.01
2018-07-07T19:17:46.416Z,101599.80
2018-07-07T19:19:52.686Z,101599.03
2018-07-07T19:22:03.249Z,101606.33
2018-07-07T19:24:13.728Z,101602.92
2018-07-07T19:26:23.971Z,101606.05
2018-07-07T19:28:29.972Z,101606.37
2018-07-07T19:30:35.365Z,101587.87
2018-07-07T19:32:45.942Z,101602.33
2018-07-07T19:34:56.184Z,101571.17
2018-07-07T19:37:06.591Z,101484.13
2018-07-07T19:39:11.878Z,101607.02
2018-07-07T19:41:17.253Z,101610.81
2018-07-07T19:43:23.782Z,101615.45
2018-07-07T19:45:29.057Z,101614.73
2018-07-07T19:47:36.565Z,101611.48
2018-07-07T19:49:43.327Z,101618.75
2018-07-07T19:51:48.319Z,101614.81
2018-07-07T19:53:54.421Z,101581.17
2018-07-07T19:56:00.444Z,101574.15
2018-07-07T19:58:06.664Z,101612.70
2018-07-07T20:00:12.049Z,101612.16
2018-07-07T20:02:17.215Z,101581.95
2018-07-07T20:04:22.668Z,101589.20
2018-07-07T20:06:28.335Z,101569.77
2018-07-07T20:08:34.066Z,101619.05
2018-07-07T20:10:39.355Z,101622.28
2018-07-07T20:12:46.470Z,101620.27
2018-07-07T20:14:52.531Z,101618.84
2018-07-07T20:17:08.288Z,101620.55
2018-07-07T20:19:18.111Z,101630.23
2018-07-07T20:21:45.093Z,101625.95
2018-07-07T20:24:04.698Z,101616.88
2018-07-07T20:26:10.001Z,101623.94
2018-07-07T20:28:21.872Z,101615.70
2018-07-07T20:30:29.180Z,101622.12
2018-07-07T20:32:39.499Z,101586.41
2018-07-07T20:34:46.473Z,101626.41
2018-07-07T20:36:53.679Z,101617.89
2018-07-07T20:38:59.005Z,101621.88
2018-07-07T20:41:05.436Z,101627.97
2018-07-07T20:43:12.298Z,101620.64
2018-07-07T20:45:18.466Z,101610.28
2018-07-07T20:47:24.391Z,101631.19
2018-07-07T20:49:40.628Z,101627.58
2018-07-07T20:51:46.034Z,101630.38
2018-07-07T20:53:54.280Z,101628.78
2018-07-07T20:55:59.368Z,101584.28
2018-07-07T20:58:05.287Z,101634.48
2018-07-07T21:00:13.177Z,101630.77
2018-07-07T21:02:18.484Z,101630.58
2018-07-07T21:04:23.568Z,101629.66
2018-07-07T21:06:32.199Z,101633.77
2018-07-07T21:08:39.262Z,101632.56
2018-07-07T21:10:45.079Z,101633.02
2018-07-07T21:12:50.538Z,101629.72
2018-07-07T21:14:56.947Z,101625.67
2018-07-07T21:17:02.476Z,101631.52
2018-07-07T21:19:07.722Z,101627.13
2018-07-07T21:21:12.775Z,101633.20
2018-07-07T21:23:17.958Z,101632.50
2018-07-07T21:25:23.105Z,101632.75
2018-07-07T21:27:28.587Z,101612.95
2018-07-07T21:29:34.686Z,101627.19
2018-07-07T21:31:39.856Z,101632.08
2018-07-07T21:33:45.466Z,101630.10
2018-07-07T21:35:52.057Z,101639.73
2018-07-07T21:37:58.488Z,101634.81
2018-07-07T21:40:03.765Z,101635.50
2018-07-07T21:42:09.015Z,101632.30
2018-07-07T21:44:14.494Z,101638.03
2018-07-07T21:46:19.690Z,101637.88
2018-07-07T21:48:24.928Z,101619.02
2018-07-07T21:50:29.916Z,101638.86
2018-07-07T21:52:35.188Z,101639.73
2018-07-07T21:54:40.430Z,101634.20
2018-07-07T21:56:45.486Z,101636.39
2018-07-07T21:58:54.486Z,101639.14
2018-07-07T22:01:15.757Z,101632.14
2018-07-07T22:03:25.822Z,101636.80
2018-07-07T22:05:32.281Z,101639.61
2018-07-07T22:07:42.186Z,101645.64
2018-07-07T22:09:47.084Z,101642.66
2018-07-07T22:11:52.229Z,101641.81
2018-07-07T22:13:57.260Z,101646.16
2018-07-07T22:16:02.355Z,101639.41
2018-07-07T22:18:07.593Z,101636.84
2018-07-07T22:20:12.619Z,101642.55
2018-07-07T22:22:18.991Z,101644.31
2018-07-07T22:24:24.454Z,101642.16
2018-07-07T22:26:30.363Z,101643.96
2018-07-07T22:28:36.285Z,101646.47
2018-07-07T22:30:42.604Z,101650.08
2018-07-07T22:32:47.780Z,101644.42
2018-07-07T22:34:53.182Z,101645.93
2018-07-07T22:36:58.383Z,101647.56
2018-07-07T22:39:03.791Z,101648.27
2018-07-07T22:41:09.459Z,101637.33
2018-07-07T22:43:14.942Z,101643.86
2018-07-07T22:45:20.226Z,101647.25
2018-07-07T22:47:25.777Z,101575.98
2018-07-07T22:49:32.153Z,101606.11
2018-07-07T22:51:38.235Z,101652.03
2018-07-07T22:53:44.323Z,101615.97
2018-07-07T22:55:49.620Z,101660.69
2018-07-07T22:57:54.573Z,101656.84
2018-07-07T22:59:59.602Z,101659.20
2018-07-07T23:02:04.694Z,101653.18
2018-07-07T23:04:09.885Z,101657.71
2018-07-07T23:06:14.869Z,101594.11
2018-07-07T23:08:20.312Z,101650.00
2018-07-07T23:10:25.791Z,101655.64
2018-07-07T23:12:30.990Z,101651.88
2018-07-07T23:14:36.385Z,101650.41
2018-07-07T23:16:41.379Z,101651.20
2018-07-07T23:18:46.410Z,101672.27
2018-07-07T23:20:51.904Z,101606.78
2018-07-07T23:22:57.093Z,101637.73
2018-07-07T23:25:02.391Z,101656.76
2018-07-07T23:27:07.684Z,101647.48
2018-07-07T23:29:12.547Z,101648.52
2018-07-07T23:31:17.579Z,101649.92
2018-07-07T23:33:22.533Z,101648.56
2018-07-07T23:35:27.421Z,101645.14
2018-07-07T23:37:32.303Z,101645.97
2018-07-07T23:39:44.467Z,101649.03
2018-07-07T23:41:49.801Z,101644.00
2018-07-07T23:43:54.892Z,101648.35
2018-07-07T23:46:00.073Z,101615.12
2018-07-07T23:48:05.276Z,101645.24
2018-07-07T23:50:10.604Z,101643.53
2018-07-07T23:52:15.717Z,101644.34
2018-07-07T23:54:20.957Z,101503.54
2018-07-07T23:56:27.313Z,101647.88
2018-07-07T23:58:32.490Z,101647.81
